sensor_id;sensor_type;location;lat;lon;timestamp;P1;durP1;ratioP1;P2;durP2;ratioP2
71715;SDS011;59568;52.128;5.434;2022-09-14T00:01:21;4.03;;;0.60;;
71715;SDS011;59568;52.128;5.434;2022-09-14T00:04:02;5.60;;;0.82;;
71715;SDS011;59568;52.128;5.434;2022-09-14T00:06:31;4.68;;;1.05;;
71715;SDS011;59568;52.128;5.434;2022-09-14T00:08:59;2.13;;;0.50;;
71715;SDS011;59568;52.128;5.434;2022-09-14T00:11:28;1.63;;;0.50;;
71715;SDS011;59568;52.128;5.434;2022-09-14T00:13:57;2.47;;;0.80;;
71715;SDS011;59568;52.128;5.434;2022-09-14T00:16:26;2.42;;;0.50;;
71715;SDS011;59568;52.128;5.434;2022-09-14T00:18:56;4.53;;;0.80;;
71715;SDS011;59568;52.128;5.434;2022-09-14T00:21:35;3.43;;;0.70;;
71715;SDS011;59568;52.128;5.434;2022-09-14T00:24:04;4.03;;;0.70;;
71715;SDS011;59568;52.128;5.434;2022-09-14T00:26:33;4.45;;;0.60;;
71715;SDS011;59568;52.128;5.434;2022-09-14T00:29:00;3.53;;;0.80;;
71715;SDS011;59568;52.128;5.434;2022-09-14T00:31:31;3.53;;;0.75;;
71715;SDS011;59568;52.128;5.434;2022-09-14T00:34:00;3.57;;;0.83;;
71715;SDS011;59568;52.128;5.434;2022-09-14T00:36:29;2.28;;;0.60;;
71715;SDS011;59568;52.128;5.434;2022-09-14T00:38:57;2.13;;;0.80;;
71715;SDS011;59568;52.128;5.434;2022-09-14T00:41:28;1.83;;;0.70;;
71715;SDS011;59568;52.128;5.434;2022-09-14T00:44:03;2.05;;;0.70;;
71715;SDS011;59568;52.128;5.434;2022-09-14T00:49:14;4.18;;;0.60;;
71715;SDS011;59568;52.128;5.434;2022-09-14T00:51:48;2.45;;;0.55;;
71715;SDS011;59568;52.128;5.434;2022-09-14T00:54:22;2.35;;;0.52;;
71715;SDS011;59568;52.128;5.434;2022-09-14T00:56:49;4.93;;;0.60;;
71715;SDS011;59568;52.128;5.434;2022-09-14T00:59:18;2.17;;;0.50;;
71715;SDS011;59568;52.128;5.434;2022-09-14T01:01:51;4.38;;;0.55;;
71715;SDS011;59568;52.128;5.434;2022-09-14T01:04:18;3.53;;;0.70;;
71715;SDS011;59568;52.128;5.434;2022-09-14T01:09:30;2.22;;;0.70;;
71715;SDS011;59568;52.128;5.434;2022-09-14T01:14:58;2.58;;;0.80;;
71715;SDS011;59568;52.128;5.434;2022-09-14T01:18:18;3.50;;;0.70;;
71715;SDS011;59568;52.128;5.434;2022-09-14T01:20:57;3.05;;;0.60;;
71715;SDS011;59568;52.128;5.434;2022-09-14T01:23:35;3.88;;;0.90;;
71715;SDS011;59568;52.128;5.434;2022-09-14T01:26:20;3.90;;;0.90;;
71715;SDS011;59568;52.128;5.434;2022-09-14T01:29:02;5.57;;;0.75;;
71715;SDS011;59568;52.128;5.434;2022-09-14T01:32:09;1.15;;;0.43;;
71715;SDS011;59568;52.128;5.434;2022-09-14T01:34:52;4.20;;;0.70;;
71715;SDS011;59568;52.128;5.434;2022-09-14T01:40:38;2.60;;;0.60;;
71715;SDS011;59568;52.128;5.434;2022-09-14T01:46:07;2.70;;;1.05;;
71715;SDS011;59568;52.128;5.434;2022-09-14T01:48:46;1.73;;;0.80;;
71715;SDS011;59568;52.128;5.434;2022-09-14T01:51:18;1.92;;;0.82;;
71715;SDS011;59568;52.128;5.434;2022-09-14T01:53:54;7.33;;;0.90;;
71715;SDS011;59568;52.128;5.434;2022-09-14T01:56:31;5.30;;;1.30;;
71715;SDS011;59568;52.128;5.434;2022-09-14T01:59:10;5.47;;;1.38;;
71715;SDS011;59568;52.128;5.434;2022-09-14T02:01:44;5.30;;;1.05;;
71715;SDS011;59568;52.128;5.434;2022-09-14T02:04:21;4.53;;;1.38;;
71715;SDS011;59568;52.128;5.434;2022-09-14T02:07:10;2.53;;;1.20;;
71715;SDS011;59568;52.128;5.434;2022-09-14T02:09:37;4.55;;;0.90;;
71715;SDS011;59568;52.128;5.434;2022-09-14T02:12:04;3.72;;;1.10;;
71715;SDS011;59568;52.128;5.434;2022-09-14T02:14:32;3.78;;;1.00;;
71715;SDS011;59568;52.128;5.434;2022-09-14T02:16:59;2.55;;;1.08;;
71715;SDS011;59568;52.128;5.434;2022-09-14T02:19:27;2.47;;;0.90;;
71715;SDS011;59568;52.128;5.434;2022-09-14T02:21:58;2.22;;;1.10;;
71715;SDS011;59568;52.128;5.434;2022-09-14T02:24:26;3.50;;;0.68;;
71715;SDS011;59568;52.128;5.434;2022-09-14T02:26:53;4.47;;;1.00;;
71715;SDS011;59568;52.128;5.434;2022-09-14T02:29:22;6.28;;;1.00;;
71715;SDS011;59568;52.128;5.434;2022-09-14T02:31:52;3.27;;;1.00;;
71715;SDS011;59568;52.128;5.434;2022-09-14T02:40:52;3.83;;;1.05;;
71715;SDS011;59568;52.128;5.434;2022-09-14T02:43:30;4.75;;;0.93;;
71715;SDS011;59568;52.128;5.434;2022-09-14T02:52:02;1.45;;;0.60;;
71715;SDS011;59568;52.128;5.434;2022-09-14T02:54:56;3.80;;;0.80;;
71715;SDS011;59568;52.128;5.434;2022-09-14T03:00:26;3.10;;;0.70;;
71715;SDS011;59568;52.128;5.434;2022-09-14T03:02:54;3.17;;;0.88;;
71715;SDS011;59568;52.128;5.434;2022-09-14T03:05:21;2.92;;;0.90;;
71715;SDS011;59568;52.128;5.434;2022-09-14T03:07:48;2.15;;;0.90;;
71715;SDS011;59568;52.128;5.434;2022-09-14T03:10:15;2.72;;;0.88;;
71715;SDS011;59568;52.128;5.434;2022-09-14T03:12:42;2.03;;;0.80;;
71715;SDS011;59568;52.128;5.434;2022-09-14T03:15:09;3.88;;;0.90;;
71715;SDS011;59568;52.128;5.434;2022-09-14T03:17:36;5.05;;;1.38;;
71715;SDS011;59568;52.128;5.434;2022-09-14T03:20:03;3.20;;;0.70;;
71715;SDS011;59568;52.128;5.434;2022-09-14T03:22:31;6.25;;;1.15;;
71715;SDS011;59568;52.128;5.434;2022-09-14T03:24:58;2.97;;;1.00;;
71715;SDS011;59568;52.128;5.434;2022-09-14T03:27:25;4.80;;;1.23;;
71715;SDS011;59568;52.128;5.434;2022-09-14T03:29:52;2.10;;;0.82;;
71715;SDS011;59568;52.128;5.434;2022-09-14T03:32:18;3.22;;;0.88;;
71715;SDS011;59568;52.128;5.434;2022-09-14T03:34:45;5.63;;;1.25;;
71715;SDS011;59568;52.128;5.434;2022-09-14T03:37:12;2.87;;;0.87;;
71715;SDS011;59568;52.128;5.434;2022-09-14T03:39:39;4.72;;;1.00;;
71715;SDS011;59568;52.128;5.434;2022-09-14T03:42:06;2.22;;;0.65;;
71715;SDS011;59568;52.128;5.434;2022-09-14T03:44:32;4.47;;;1.00;;
71715;SDS011;59568;52.128;5.434;2022-09-14T03:46:59;5.55;;;1.45;;
71715;SDS011;59568;52.128;5.434;2022-09-14T03:49:26;3.33;;;1.00;;
71715;SDS011;59568;52.128;5.434;2022-09-14T03:51:53;7.20;;;1.10;;
71715;SDS011;59568;52.128;5.434;2022-09-14T03:54:25;5.20;;;1.40;;
71715;SDS011;59568;52.128;5.434;2022-09-14T03:56:52;3.28;;;0.70;;
71715;SDS011;59568;52.128;5.434;2022-09-14T03:59:19;3.83;;;0.98;;
71715;SDS011;59568;52.128;5.434;2022-09-14T04:01:47;2.80;;;1.00;;
71715;SDS011;59568;52.128;5.434;2022-09-14T04:04:14;3.65;;;1.27;;
71715;SDS011;59568;52.128;5.434;2022-09-14T04:06:41;2.50;;;0.70;;
71715;SDS011;59568;52.128;5.434;2022-09-14T04:09:08;3.22;;;1.33;;
71715;SDS011;59568;52.128;5.434;2022-09-14T04:11:35;3.05;;;1.08;;
71715;SDS011;59568;52.128;5.434;2022-09-14T04:14:02;2.17;;;1.00;;
71715;SDS011;59568;52.128;5.434;2022-09-14T04:16:30;3.58;;;1.20;;
71715;SDS011;59568;52.128;5.434;2022-09-14T04:18:57;4.90;;;1.50;;
71715;SDS011;59568;52.128;5.434;2022-09-14T04:21:24;5.63;;;1.02;;
71715;SDS011;59568;52.128;5.434;2022-09-14T04:23:52;3.97;;;1.08;;
71715;SDS011;59568;52.128;5.434;2022-09-14T04:26:40;5.50;;;1.90;;
71715;SDS011;59568;52.128;5.434;2022-09-14T04:29:08;4.45;;;0.93;;
71715;SDS011;59568;52.128;5.434;2022-09-14T04:31:35;3.60;;;1.50;;
71715;SDS011;59568;52.128;5.434;2022-09-14T04:34:03;3.72;;;1.13;;
71715;SDS011;59568;52.128;5.434;2022-09-14T04:36:30;3.53;;;1.10;;
71715;SDS011;59568;52.128;5.434;2022-09-14T04:38:58;4.83;;;1.10;;
71715;SDS011;59568;52.128;5.434;2022-09-14T04:41:27;3.53;;;0.93;;
71715;SDS011;59568;52.128;5.434;2022-09-14T04:43:55;5.03;;;1.50;;
71715;SDS011;59568;52.128;5.434;2022-09-14T04:46:24;3.10;;;1.27;;
71715;SDS011;59568;52.128;5.434;2022-09-14T04:48:56;2.90;;;1.15;;
71715;SDS011;59568;52.128;5.434;2022-09-14T04:51:25;2.97;;;1.30;;
71715;SDS011;59568;52.128;5.434;2022-09-14T04:53:54;3.60;;;1.30;;
71715;SDS011;59568;52.128;5.434;2022-09-14T04:56:22;2.80;;;1.08;;
71715;SDS011;59568;52.128;5.434;2022-09-14T04:58:51;3.58;;;1.70;;
71715;SDS011;59568;52.128;5.434;2022-09-14T05:01:21;7.50;;;1.58;;
71715;SDS011;59568;52.128;5.434;2022-09-14T05:03:50;4.00;;;1.40;;
71715;SDS011;59568;52.128;5.434;2022-09-14T05:06:18;4.20;;;1.58;;
71715;SDS011;59568;52.128;5.434;2022-09-14T05:08:47;2.03;;;1.20;;
71715;SDS011;59568;52.128;5.434;2022-09-14T05:11:16;4.03;;;1.35;;
71715;SDS011;59568;52.128;5.434;2022-09-14T05:13:46;5.18;;;2.10;;
71715;SDS011;59568;52.128;5.434;2022-09-14T05:16:19;5.77;;;1.77;;
71715;SDS011;59568;52.128;5.434;2022-09-14T05:18:53;4.00;;;1.60;;
71715;SDS011;59568;52.128;5.434;2022-09-14T05:21:21;4.70;;;1.80;;
71715;SDS011;59568;52.128;5.434;2022-09-14T05:23:56;3.47;;;1.45;;
71715;SDS011;59568;52.128;5.434;2022-09-14T05:26:25;3.42;;;1.40;;
71715;SDS011;59568;52.128;5.434;2022-09-14T05:28:54;2.93;;;1.50;;
71715;SDS011;59568;52.128;5.434;2022-09-14T05:31:23;3.08;;;1.17;;
71715;SDS011;59568;52.128;5.434;2022-09-14T05:33:52;3.13;;;1.67;;
71715;SDS011;59568;52.128;5.434;2022-09-14T05:36:19;7.53;;;1.92;;
71715;SDS011;59568;52.128;5.434;2022-09-14T05:38:47;6.32;;;1.70;;
71715;SDS011;59568;52.128;5.434;2022-09-14T05:41:14;4.37;;;1.57;;
71715;SDS011;59568;52.128;5.434;2022-09-14T05:43:42;3.30;;;1.15;;
71715;SDS011;59568;52.128;5.434;2022-09-14T05:46:13;3.97;;;1.70;;
71715;SDS011;59568;52.128;5.434;2022-09-14T05:48:47;8.15;;;1.70;;
71715;SDS011;59568;52.128;5.434;2022-09-14T05:51:21;3.55;;;1.65;;
71715;SDS011;59568;52.128;5.434;2022-09-14T05:53:50;5.07;;;1.77;;
71715;SDS011;59568;52.128;5.434;2022-09-14T05:56:19;6.40;;;1.70;;
71715;SDS011;59568;52.128;5.434;2022-09-14T05:58:48;4.45;;;2.15;;
71715;SDS011;59568;52.128;5.434;2022-09-14T06:01:16;4.25;;;1.70;;
71715;SDS011;59568;52.128;5.434;2022-09-14T06:03:45;3.42;;;1.30;;
71715;SDS011;59568;52.128;5.434;2022-09-14T06:06:15;4.60;;;1.40;;
71715;SDS011;59568;52.128;5.434;2022-09-14T06:08:44;3.60;;;1.00;;
71715;SDS011;59568;52.128;5.434;2022-09-14T06:11:12;4.55;;;1.63;;
71715;SDS011;59568;52.128;5.434;2022-09-14T06:13:42;3.42;;;1.63;;
71715;SDS011;59568;52.128;5.434;2022-09-14T06:16:11;4.28;;;1.85;;
71715;SDS011;59568;52.128;5.434;2022-09-14T06:18:39;4.63;;;1.30;;
71715;SDS011;59568;52.128;5.434;2022-09-14T06:21:08;2.72;;;2.00;;
71715;SDS011;59568;52.128;5.434;2022-09-14T06:23:36;5.82;;;1.92;;
71715;SDS011;59568;52.128;5.434;2022-09-14T06:26:04;4.20;;;2.03;;
71715;SDS011;59568;52.128;5.434;2022-09-14T06:28:31;4.88;;;1.90;;
71715;SDS011;59568;52.128;5.434;2022-09-14T06:30:59;5.70;;;1.80;;
71715;SDS011;59568;52.128;5.434;2022-09-14T06:33:29;2.95;;;1.90;;
71715;SDS011;59568;52.128;5.434;2022-09-14T06:36:04;3.60;;;2.00;;
71715;SDS011;59568;52.128;5.434;2022-09-14T06:38:38;5.78;;;1.73;;
71715;SDS011;59568;52.128;5.434;2022-09-14T06:41:07;4.50;;;1.98;;
71715;SDS011;59568;52.128;5.434;2022-09-14T06:43:36;2.77;;;1.57;;
71715;SDS011;59568;52.128;5.434;2022-09-14T06:46:05;5.32;;;1.63;;
71715;SDS011;59568;52.128;5.434;2022-09-14T06:48:37;4.93;;;1.80;;
71715;SDS011;59568;52.128;5.434;2022-09-14T06:51:22;9.15;;;2.10;;
71715;SDS011;59568;52.128;5.434;2022-09-14T06:53:56;4.25;;;1.90;;
71715;SDS011;59568;52.128;5.434;2022-09-14T06:56:28;4.43;;;1.57;;
71715;SDS011;59568;52.128;5.434;2022-09-14T06:58:57;5.85;;;1.77;;
71715;SDS011;59568;52.128;5.434;2022-09-14T07:01:25;2.85;;;1.42;;
71715;SDS011;59568;52.128;5.434;2022-09-14T07:03:53;2.58;;;1.48;;
71715;SDS011;59568;52.128;5.434;2022-09-14T07:06:21;5.53;;;2.00;;
71715;SDS011;59568;52.128;5.434;2022-09-14T07:08:50;3.83;;;1.43;;
71715;SDS011;59568;52.128;5.434;2022-09-14T07:11:19;5.38;;;1.77;;
71715;SDS011;59568;52.128;5.434;2022-09-14T07:13:48;3.55;;;1.42;;
71715;SDS011;59568;52.128;5.434;2022-09-14T07:16:16;2.72;;;1.50;;
71715;SDS011;59568;52.128;5.434;2022-09-14T07:18:42;4.68;;;1.73;;
71715;SDS011;59568;52.128;5.434;2022-09-14T07:21:11;4.67;;;1.90;;
71715;SDS011;59568;52.128;5.434;2022-09-14T07:23:42;3.47;;;1.80;;
71715;SDS011;59568;52.128;5.434;2022-09-14T07:26:14;4.05;;;1.88;;
71715;SDS011;59568;52.128;5.434;2022-09-14T07:28:53;4.07;;;1.52;;
71715;SDS011;59568;52.128;5.434;2022-09-14T07:31:29;3.15;;;1.52;;
71715;SDS011;59568;52.128;5.434;2022-09-14T07:33:59;5.63;;;2.50;;
71715;SDS011;59568;52.128;5.434;2022-09-14T07:36:30;6.88;;;2.00;;
71715;SDS011;59568;52.128;5.434;2022-09-14T07:39:01;5.80;;;1.75;;
71715;SDS011;59568;52.128;5.434;2022-09-14T07:41:32;2.95;;;1.30;;
71715;SDS011;59568;52.128;5.434;2022-09-14T07:44:00;7.85;;;1.95;;
71715;SDS011;59568;52.128;5.434;2022-09-14T07:46:30;7.80;;;1.77;;
71715;SDS011;59568;52.128;5.434;2022-09-14T07:48:59;5.40;;;1.30;;
71715;SDS011;59568;52.128;5.434;2022-09-14T07:51:28;3.60;;;1.50;;
71715;SDS011;59568;52.128;5.434;2022-09-14T07:53:56;5.35;;;2.00;;
71715;SDS011;59568;52.128;5.434;2022-09-14T07:56:24;5.65;;;1.90;;
71715;SDS011;59568;52.128;5.434;2022-09-14T07:58:52;6.93;;;1.80;;
71715;SDS011;59568;52.128;5.434;2022-09-14T08:01:37;5.50;;;1.60;;
71715;SDS011;59568;52.128;5.434;2022-09-14T08:04:04;8.00;;;1.50;;
71715;SDS011;59568;52.128;5.434;2022-09-14T08:06:31;7.20;;;1.50;;
71715;SDS011;59568;52.128;5.434;2022-09-14T08:08:59;7.78;;;2.17;;
71715;SDS011;59568;52.128;5.434;2022-09-14T08:11:29;5.13;;;1.60;;
71715;SDS011;59568;52.128;5.434;2022-09-14T08:13:58;5.68;;;1.48;;
71715;SDS011;59568;52.128;5.434;2022-09-14T08:16:27;5.55;;;1.90;;
71715;SDS011;59568;52.128;5.434;2022-09-14T08:18:56;4.32;;;1.55;;
71715;SDS011;59568;52.128;5.434;2022-09-14T08:21:29;4.88;;;1.55;;
71715;SDS011;59568;52.128;5.434;2022-09-14T08:23:57;3.57;;;1.23;;
71715;SDS011;59568;52.128;5.434;2022-09-14T08:26:27;5.00;;;1.38;;
71715;SDS011;59568;52.128;5.434;2022-09-14T08:28:54;3.13;;;1.70;;
71715;SDS011;59568;52.128;5.434;2022-09-14T08:31:23;5.55;;;1.45;;
71715;SDS011;59568;52.128;5.434;2022-09-14T08:33:52;6.70;;;1.45;;
71715;SDS011;59568;52.128;5.434;2022-09-14T08:36:22;3.33;;;1.20;;
71715;SDS011;59568;52.128;5.434;2022-09-14T08:38:51;5.05;;;1.15;;
71715;SDS011;59568;52.128;5.434;2022-09-14T08:41:26;3.88;;;1.70;;
71715;SDS011;59568;52.128;5.434;2022-09-14T08:44:01;5.93;;;1.17;;
71715;SDS011;59568;52.128;5.434;2022-09-14T08:46:34;8.48;;;1.45;;
71715;SDS011;59568;52.128;5.434;2022-09-14T08:49:53;5.07;;;1.60;;
71715;SDS011;59568;52.128;5.434;2022-09-14T08:51:55;5.22;;;1.38;;
71715;SDS011;59568;52.128;5.434;2022-09-14T08:54:22;4.35;;;1.15;;
71715;SDS011;59568;52.128;5.434;2022-09-14T08:57:24;2.85;;;1.60;;
71715;SDS011;59568;52.128;5.434;2022-09-14T08:59:48;4.35;;;1.33;;
71715;SDS011;59568;52.128;5.434;2022-09-14T09:10:51;4.20;;;1.30;;
71715;SDS011;59568;52.128;5.434;2022-09-14T09:13:20;6.43;;;1.20;;
71715;SDS011;59568;52.128;5.434;2022-09-14T09:15:52;3.93;;;0.87;;
71715;SDS011;59568;52.128;5.434;2022-09-14T09:18:40;6.25;;;1.33;;
71715;SDS011;59568;52.128;5.434;2022-09-14T09:21:40;3.95;;;1.42;;
71715;SDS011;59568;52.128;5.434;2022-09-14T09:24:13;7.45;;;1.10;;
71715;SDS011;59568;52.128;5.434;2022-09-14T09:27:07;3.83;;;0.98;;
71715;SDS011;59568;52.128;5.434;2022-09-14T09:29:36;5.00;;;1.20;;
71715;SDS011;59568;52.128;5.434;2022-09-14T09:32:04;3.95;;;1.05;;
71715;SDS011;59568;52.128;5.434;2022-09-14T09:34:34;4.68;;;1.20;;
71715;SDS011;59568;52.128;5.434;2022-09-14T09:37:01;4.40;;;1.23;;
71715;SDS011;59568;52.128;5.434;2022-09-14T09:39:29;5.78;;;1.00;;
71715;SDS011;59568;52.128;5.434;2022-09-14T09:44:28;4.47;;;1.45;;
71715;SDS011;59568;52.128;5.434;2022-09-14T09:46:57;4.35;;;0.98;;
71715;SDS011;59568;52.128;5.434;2022-09-14T09:52:13;5.10;;;1.38;;
71715;SDS011;59568;52.128;5.434;2022-09-14T09:54:47;3.57;;;1.00;;
71715;SDS011;59568;52.128;5.434;2022-09-14T09:57:38;3.13;;;1.17;;
71715;SDS011;59568;52.128;5.434;2022-09-14T10:00:17;5.00;;;1.40;;
71715;SDS011;59568;52.128;5.434;2022-09-14T10:02:55;3.53;;;1.15;;
71715;SDS011;59568;52.128;5.434;2022-09-14T10:05:24;6.85;;;1.60;;
71715;SDS011;59568;52.128;5.434;2022-09-14T10:07:55;8.73;;;1.43;;
71715;SDS011;59568;52.128;5.434;2022-09-14T10:10:25;3.30;;;1.45;;
71715;SDS011;59568;52.128;5.434;2022-09-14T10:13:30;3.55;;;1.23;;
71715;SDS011;59568;52.128;5.434;2022-09-14T10:18:55;2.72;;;1.10;;
71715;SDS011;59568;52.128;5.434;2022-09-14T10:21:24;5.60;;;1.20;;
71715;SDS011;59568;52.128;5.434;2022-09-14T10:24:05;5.53;;;1.10;;
71715;SDS011;59568;52.128;5.434;2022-09-14T10:26:42;6.93;;;1.10;;
71715;SDS011;59568;52.128;5.434;2022-09-14T10:29:22;5.18;;;1.35;;
71715;SDS011;59568;52.128;5.434;2022-09-14T10:31:59;6.28;;;1.15;;
71715;SDS011;59568;52.128;5.434;2022-09-14T10:34:36;4.13;;;1.30;;
71715;SDS011;59568;52.128;5.434;2022-09-14T10:37:06;6.15;;;1.15;;
71715;SDS011;59568;52.128;5.434;2022-09-14T10:39:50;5.07;;;1.23;;
71715;SDS011;59568;52.128;5.434;2022-09-14T10:43:08;4.63;;;1.40;;
71715;SDS011;59568;52.128;5.434;2022-09-14T10:45:40;7.10;;;1.90;;
71715;SDS011;59568;52.128;5.434;2022-09-14T10:53:40;3.92;;;1.05;;
71715;SDS011;59568;52.128;5.434;2022-09-14T10:56:13;3.20;;;1.23;;
71715;SDS011;59568;52.128;5.434;2022-09-14T11:24:34;4.28;;;1.02;;
71715;SDS011;59568;52.128;5.434;2022-09-14T11:29:56;3.57;;;1.00;;
71715;SDS011;59568;52.128;5.434;2022-09-14T11:32:32;3.67;;;1.13;;
71715;SDS011;59568;52.128;5.434;2022-09-14T11:35:20;4.20;;;1.00;;
71715;SDS011;59568;52.128;5.434;2022-09-14T11:37:56;6.53;;;1.10;;
71715;SDS011;59568;52.128;5.434;2022-09-14T11:40:30;3.75;;;0.90;;
71715;SDS011;59568;52.128;5.434;2022-09-14T11:45:41;5.05;;;0.60;;
71715;SDS011;59568;52.128;5.434;2022-09-14T11:48:23;4.35;;;0.60;;
71715;SDS011;59568;52.128;5.434;2022-09-14T11:51:17;5.45;;;1.15;;
71715;SDS011;59568;52.128;5.434;2022-09-14T11:53:47;3.97;;;0.98;;
71715;SDS011;59568;52.128;5.434;2022-09-14T11:58:53;4.60;;;0.60;;
71715;SDS011;59568;52.128;5.434;2022-09-14T12:01:29;3.65;;;1.00;;
71715;SDS011;59568;52.128;5.434;2022-09-14T12:04:13;2.38;;;0.90;;
71715;SDS011;59568;52.128;5.434;2022-09-14T12:06:44;3.53;;;0.80;;
71715;SDS011;59568;52.128;5.434;2022-09-14T12:11:49;7.70;;;1.10;;
71715;SDS011;59568;52.128;5.434;2022-09-14T12:20:25;5.55;;;1.60;;
71715;SDS011;59568;52.128;5.434;2022-09-14T12:22:47;4.53;;;0.70;;
71715;SDS011;59568;52.128;5.434;2022-09-14T12:25:19;3.75;;;0.57;;
71715;SDS011;59568;52.128;5.434;2022-09-14T12:27:48;5.75;;;0.80;;
71715;SDS011;59568;52.128;5.434;2022-09-14T12:31:04;5.75;;;0.47;;
71715;SDS011;59568;52.128;5.434;2022-09-14T12:43:53;4.15;;;0.98;;
71715;SDS011;59568;52.128;5.434;2022-09-14T12:56:31;4.60;;;0.80;;
71715;SDS011;59568;52.128;5.434;2022-09-14T13:05:10;4.03;;;0.65;;
71715;SDS011;59568;52.128;5.434;2022-09-14T13:07:41;3.42;;;0.68;;
71715;SDS011;59568;52.128;5.434;2022-09-14T13:10:16;5.38;;;0.77;;
71715;SDS011;59568;52.128;5.434;2022-09-14T13:12:46;4.72;;;0.80;;
71715;SDS011;59568;52.128;5.434;2022-09-14T13:15:19;3.53;;;0.50;;
71715;SDS011;59568;52.128;5.434;2022-09-14T13:17:58;3.33;;;0.60;;
71715;SDS011;59568;52.128;5.434;2022-09-14T13:20:31;3.10;;;0.73;;
71715;SDS011;59568;52.128;5.434;2022-09-14T13:23:00;3.83;;;0.57;;
71715;SDS011;59568;52.128;5.434;2022-09-14T13:25:29;3.40;;;0.60;;
71715;SDS011;59568;52.128;5.434;2022-09-14T13:28:05;2.70;;;0.40;;
71715;SDS011;59568;52.128;5.434;2022-09-14T13:30:39;2.95;;;0.30;;
71715;SDS011;59568;52.128;5.434;2022-09-14T13:33:14;2.47;;;0.35;;
71715;SDS011;59568;52.128;5.434;2022-09-14T13:35:53;2.15;;;0.40;;
71715;SDS011;59568;52.128;5.434;2022-09-14T13:38:27;5.85;;;0.40;;
71715;SDS011;59568;52.128;5.434;2022-09-14T13:41:02;4.67;;;0.30;;
71715;SDS011;59568;52.128;5.434;2022-09-14T13:43:33;2.45;;;0.50;;
71715;SDS011;59568;52.128;5.434;2022-09-14T13:46:00;1.67;;;0.52;;
71715;SDS011;59568;52.128;5.434;2022-09-14T13:48:28;2.33;;;0.35;;
71715;SDS011;59568;52.128;5.434;2022-09-14T13:50:55;2.13;;;0.50;;
71715;SDS011;59568;52.128;5.434;2022-09-14T13:53:38;1.57;;;0.40;;
71715;SDS011;59568;52.128;5.434;2022-09-14T14:09:41;5.25;;;0.47;;
71715;SDS011;59568;52.128;5.434;2022-09-14T14:12:18;5.13;;;0.30;;
71715;SDS011;59568;52.128;5.434;2022-09-14T14:14:52;2.17;;;0.30;;
71715;SDS011;59568;52.128;5.434;2022-09-14T14:17:22;2.22;;;0.30;;
71715;SDS011;59568;52.128;5.434;2022-09-14T14:19:51;3.17;;;0.20;;
71715;SDS011;59568;52.128;5.434;2022-09-14T14:22:33;5.65;;;0.40;;
71715;SDS011;59568;52.128;5.434;2022-09-14T14:25:16;1.77;;;0.30;;
71715;SDS011;59568;52.128;5.434;2022-09-14T14:27:46;3.30;;;0.45;;
71715;SDS011;59568;52.128;5.434;2022-09-14T14:30:22;3.72;;;0.35;;
71715;SDS011;59568;52.128;5.434;2022-09-14T14:32:52;5.30;;;0.50;;
71715;SDS011;59568;52.128;5.434;2022-09-14T14:35:21;5.10;;;0.38;;
71715;SDS011;59568;52.128;5.434;2022-09-14T14:37:50;3.65;;;0.50;;
71715;SDS011;59568;52.128;5.434;2022-09-14T14:40:18;3.67;;;0.20;;
71715;SDS011;59568;52.128;5.434;2022-09-14T14:42:45;3.90;;;0.30;;
71715;SDS011;59568;52.128;5.434;2022-09-14T14:45:15;4.03;;;0.30;;
71715;SDS011;59568;52.128;5.434;2022-09-14T14:47:45;3.75;;;0.40;;
71715;SDS011;59568;52.128;5.434;2022-09-14T14:50:22;3.45;;;0.40;;
71715;SDS011;59568;52.128;5.434;2022-09-14T14:53:01;1.70;;;0.30;;
71715;SDS011;59568;52.128;5.434;2022-09-14T14:55:29;2.92;;;0.40;;
71715;SDS011;59568;52.128;5.434;2022-09-14T14:58:01;2.60;;;0.47;;
71715;SDS011;59568;52.128;5.434;2022-09-14T15:00:30;3.53;;;0.43;;
71715;SDS011;59568;52.128;5.434;2022-09-14T15:03:00;1.15;;;0.30;;
71715;SDS011;59568;52.128;5.434;2022-09-14T15:05:27;1.45;;;0.30;;
71715;SDS011;59568;52.128;5.434;2022-09-14T15:07:54;2.60;;;0.40;;
71715;SDS011;59568;52.128;5.434;2022-09-14T15:10:23;3.13;;;0.50;;
71715;SDS011;59568;52.128;5.434;2022-09-14T15:12:51;0.93;;;0.30;;
71715;SDS011;59568;52.128;5.434;2022-09-14T15:15:19;2.38;;;0.50;;
71715;SDS011;59568;52.128;5.434;2022-09-14T15:17:51;3.08;;;0.30;;
71715;SDS011;59568;52.128;5.434;2022-09-14T15:20:20;4.13;;;0.40;;
71715;SDS011;59568;52.128;5.434;2022-09-14T15:22:48;3.77;;;0.60;;
71715;SDS011;59568;52.128;5.434;2022-09-14T15:25:16;1.63;;;0.40;;
71715;SDS011;59568;52.128;5.434;2022-09-14T15:27:44;3.63;;;0.45;;
71715;SDS011;59568;52.128;5.434;2022-09-14T15:30:12;2.88;;;0.40;;
71715;SDS011;59568;52.128;5.434;2022-09-14T15:32:40;3.83;;;0.40;;
71715;SDS011;59568;52.128;5.434;2022-09-14T15:35:08;2.97;;;0.50;;
71715;SDS011;59568;52.128;5.434;2022-09-14T15:37:38;2.85;;;0.20;;
71715;SDS011;59568;52.128;5.434;2022-09-14T15:40:06;1.65;;;0.40;;
71715;SDS011;59568;52.128;5.434;2022-09-14T15:42:34;2.55;;;0.40;;
71715;SDS011;59568;52.128;5.434;2022-09-14T15:45:02;4.65;;;0.35;;
71715;SDS011;59568;52.128;5.434;2022-09-14T15:47:30;2.13;;;0.43;;
71715;SDS011;59568;52.128;5.434;2022-09-14T15:50:02;2.55;;;0.40;;
71715;SDS011;59568;52.128;5.434;2022-09-14T15:52:32;3.00;;;0.40;;
71715;SDS011;59568;52.128;5.434;2022-09-14T15:55:01;4.03;;;0.40;;
71715;SDS011;59568;52.128;5.434;2022-09-14T15:57:30;3.75;;;0.38;;
71715;SDS011;59568;52.128;5.434;2022-09-14T15:59:57;4.17;;;0.40;;
71715;SDS011;59568;52.128;5.434;2022-09-14T16:02:24;3.00;;;0.57;;
71715;SDS011;59568;52.128;5.434;2022-09-14T16:04:51;3.15;;;0.52;;
71715;SDS011;59568;52.128;5.434;2022-09-14T16:07:18;3.53;;;0.20;;
71715;SDS011;59568;52.128;5.434;2022-09-14T16:09:45;2.08;;;0.38;;
71715;SDS011;59568;52.128;5.434;2022-09-14T16:12:12;2.03;;;0.50;;
71715;SDS011;59568;52.128;5.434;2022-09-14T16:14:39;2.05;;;0.43;;
71715;SDS011;59568;52.128;5.434;2022-09-14T16:17:07;2.47;;;0.32;;
71715;SDS011;59568;52.128;5.434;2022-09-14T16:19:36;2.65;;;0.22;;
71715;SDS011;59568;52.128;5.434;2022-09-14T16:22:04;3.38;;;0.40;;
71715;SDS011;59568;52.128;5.434;2022-09-14T16:24:31;1.63;;;0.30;;
71715;SDS011;59568;52.128;5.434;2022-09-14T16:26:59;2.13;;;0.30;;
71715;SDS011;59568;52.128;5.434;2022-09-14T16:29:26;1.02;;;0.30;;
71715;SDS011;59568;52.128;5.434;2022-09-14T16:31:53;1.83;;;0.40;;
71715;SDS011;59568;52.128;5.434;2022-09-14T16:34:24;4.07;;;0.40;;
71715;SDS011;59568;52.128;5.434;2022-09-14T16:36:53;2.00;;;0.20;;
71715;SDS011;59568;52.128;5.434;2022-09-14T16:39:22;1.20;;;0.40;;
71715;SDS011;59568;52.128;5.434;2022-09-14T16:41:51;0.77;;;0.25;;
71715;SDS011;59568;52.128;5.434;2022-09-14T16:44:22;1.75;;;0.20;;
71715;SDS011;59568;52.128;5.434;2022-09-14T16:46:52;1.45;;;0.25;;
71715;SDS011;59568;52.128;5.434;2022-09-14T16:49:20;0.60;;;0.30;;
71715;SDS011;59568;52.128;5.434;2022-09-14T16:51:53;2.70;;;0.20;;
71715;SDS011;59568;52.128;5.434;2022-09-14T16:54:21;1.48;;;0.30;;
71715;SDS011;59568;52.128;5.434;2022-09-14T16:56:49;1.42;;;0.30;;
71715;SDS011;59568;52.128;5.434;2022-09-14T16:59:16;0.90;;;0.20;;
71715;SDS011;59568;52.128;5.434;2022-09-14T17:01:45;0.93;;;0.20;;
71715;SDS011;59568;52.128;5.434;2022-09-14T17:04:19;3.65;;;0.60;;
71715;SDS011;59568;52.128;5.434;2022-09-14T17:06:48;0.60;;;0.30;;
71715;SDS011;59568;52.128;5.434;2022-09-14T17:09:22;2.00;;;0.20;;
71715;SDS011;59568;52.128;5.434;2022-09-14T17:11:51;1.40;;;0.20;;
71715;SDS011;59568;52.128;5.434;2022-09-14T17:14:21;3.97;;;0.20;;
71715;SDS011;59568;52.128;5.434;2022-09-14T17:16:51;3.35;;;0.47;;
71715;SDS011;59568;52.128;5.434;2022-09-14T17:19:18;1.65;;;0.28;;
71715;SDS011;59568;52.128;5.434;2022-09-14T17:21:46;1.70;;;0.20;;
71715;SDS011;59568;52.128;5.434;2022-09-14T17:24:14;2.30;;;0.30;;
71715;SDS011;59568;52.128;5.434;2022-09-14T17:26:43;2.03;;;0.30;;
71715;SDS011;59568;52.128;5.434;2022-09-14T17:29:10;3.70;;;0.30;;